Fantasia — ICJY — position and weather

sailwx.info

Track history (hours):
 
Tides and Currents Weather Stations Pressure Air Temp Water Temp Dewpoint Dewpoint Depression Visibility Wind Speed Wind Dir Waves Ship Positions

Fantasia

Last reported at 2018-Apr-20 23:19 UTC. Time now 2018-Apr-26 03:56 UTC.
Position N 40°26' W 073°45'.

Length 183 m; draft 8.5 m.

Type: Tanker. MMSI: 247279600.

Date/timePositionNaut miles runAvg speedWind from/ knotsBaromVisibWave heightAir tempDewpointWater temp
2018-Apr-20 23:19N 40°26' W 073°45'612.5
2018-Apr-20 22:52N 40°28' W 073°52'3 8.8
2018-Apr-20 22:30N 40°29' W 073°55'611.7
2018-Apr-20 22:00N 40°33' W 074°02'510.9
2018-Apr-20 21:30N 40°38' W 074°04'3 6.0
2018-Apr-20 21:00N 40°39' W 074°07'3 6.8
2018-Apr-20 20:30N 40°38' W 074°12'3 5.1
2018-Apr-20 19:59N 40°35' W 074°12'0 0.0
2018-Apr-19 16:01N 40°35' W 074°13'0 0.0
2018-Apr-19 16:00N 40°35' W 074°13'1 1.6
2018-Apr-19 15:30N 40°34' W 074°13'2 4.9
2018-Apr-19 15:00N 40°33' W 074°15'3 4.5
2018-Apr-19 14:16N 40°29' W 074°14'2 6.2
2018-Apr-19 13:55N 40°30' W 074°11'3 8.0
2018-Apr-19 13:30N 40°30' W 074°07'5 9.5
2018-Apr-19 13:00N 40°29' W 074°01'510.2
2018-Apr-19 12:30N 40°27' W 073°55'5 9.4
2018-Apr-19 12:00N 40°26' W 073°49'3 5.8
2018-Apr-19 11:30N 40°27' W 073°45'3 6.5
2018-Apr-19 11:00N 40°27' W 073°41'3 5.6
2018-Apr-19 10:28N 40°28' W 073°37'  
Track history (hours):
 
Tides and Currents Weather Stations Pressure Air Temp Water Temp Dewpoint Dewpoint Depression Visibility Wind Speed Wind Dir Waves Ship Positions

Fantasia

Last reported at 2018-Apr-20 23:19 UTC. Time now 2018-Apr-26 03:56 UTC.
Position N 40°26' W 073°45'.

Length 183 m; draft 8.5 m.

Type: Tanker. MMSI: 247279600.

Date/timePositionNaut miles runAvg speedWind from/ knotsBaromVisibWave heightAir tempDewpointWater temp
2018-Apr-20 23:19N 40°26' W 073°45'612.5
2018-Apr-20 22:52N 40°28' W 073°52'3 8.8
2018-Apr-20 22:30N 40°29' W 073°55'611.7
2018-Apr-20 22:00N 40°33' W 074°02'510.9
2018-Apr-20 21:30N 40°38' W 074°04'3 6.0
2018-Apr-20 21:00N 40°39' W 074°07'3 6.8
2018-Apr-20 20:30N 40°38' W 074°12'3 5.1
2018-Apr-20 19:59N 40°35' W 074°12'0 0.0
2018-Apr-19 16:01N 40°35' W 074°13'0 0.0
2018-Apr-19 16:00N 40°35' W 074°13'1 1.6
2018-Apr-19 15:30N 40°34' W 074°13'2 4.9
2018-Apr-19 15:00N 40°33' W 074°15'3 4.5
2018-Apr-19 14:16N 40°29' W 074°14'2 6.2
2018-Apr-19 13:55N 40°30' W 074°11'3 8.0
2018-Apr-19 13:30N 40°30' W 074°07'5 9.5
2018-Apr-19 13:00N 40°29' W 074°01'510.2
2018-Apr-19 12:30N 40°27' W 073°55'5 9.4
2018-Apr-19 12:00N 40°26' W 073°49'3 5.8
2018-Apr-19 11:30N 40°27' W 073°45'3 6.5
2018-Apr-19 11:00N 40°27' W 073°41'3 5.6
2018-Apr-19 10:28N 40°28' W 073°37'  

Dump ship's entire track history